Time;durP1;ratioP1;P1;durP2;ratioP2;P2;SDS_P1;SDS_P2;PMS_P1;PMS_P2;Temp;Humidity;BMP_temperature;BMP_pressure;BME280_temperature;BME280_humidity;BME280_pressure;Samples;Min_cycle;Max_cycle;Signal;HPM_P1;HPM_P2
2022/10/16 00:01:39;;;;;;;;;;;19.00;95.40;;;;;;4955689;29;20048;-65
2022/10/16 00:04:05;;;;;;;;;;;18.80;95.40;;;;;;4955419;29;20025;-66
2022/10/16 00:06:31;;;;;;;;;;;;;;;;;;4953705;28;19927;-66
2022/10/16 00:08:57;;;;;;;;;;;18.90;95.40;;;;;;4954735;28;19926;-65
2022/10/16 00:11:24;;;;;;;;;;;18.90;95.30;;;;;;4955763;28;19938;-65
2022/10/16 00:13:50;;;;;;;;;;;19.00;95.30;;;;;;4954752;28;19961;-65
2022/10/16 00:16:16;;;;;;;;;;;18.80;95.30;;;;;;4955033;28;20362;-65
2022/10/16 00:18:41;;;;;;;;;;;18.80;95.30;;;;;;4954321;28;19966;-66
2022/10/16 00:21:08;;;;;;;;;;;19.10;95.30;;;;;;4955515;29;19963;-66
2022/10/16 00:23:34;;;;;;;;;;;18.90;95.20;;;;;;4955354;29;20372;-66
2022/10/16 00:26:01;;;;;;;;;;;18.70;95.20;;;;;;4955480;29;19969;-66
2022/10/16 00:28:27;;;;;;;;;;;18.80;95.20;;;;;;4958645;28;19926;-65
2022/10/16 00:30:53;;;;;;;;;;;18.90;95.20;;;;;;4959076;29;20404;-65
2022/10/16 00:33:18;;;;;;;;;;;19.00;95.20;;;;;;4941387;28;19927;-67
2022/10/16 00:35:44;;;;;;;;;;;;;;;;;;4958912;29;19933;-66
2022/10/16 00:38:10;;;;;;;;;;;18.90;95.20;;;;;;4958095;28;19926;-65
2022/10/16 00:40:35;;;;;;;;;;;18.80;95.10;;;;;;4958536;29;20398;-66
2022/10/16 00:43:01;;;;;;;;;;;18.80;95.10;;;;;;4958512;29;19926;-65
2022/10/16 00:45:27;;;;;;;;;;;19.10;95.20;;;;;;4952139;28;19926;-65
2022/10/16 00:47:53;;;;;;;;;;;18.90;95.10;;;;;;4978115;28;19930;-66
2022/10/16 00:50:23;;;;;;;;;;;18.90;95.10;;;;;;4963829;28;19978;-66
2022/10/16 00:52:49;;;;;;;;;;;19.00;95.10;;;;;;4924079;29;19935;-66
2022/10/16 00:55:14;;;;;;;;;;;19.10;95.10;;;;;;4939150;29;19927;-65
2022/10/16 00:57:40;;;;;;;;;;;19.00;95.10;;;;;;4938361;29;19927;-65
2022/10/16 01:00:06;;;;;;;;;;;18.80;95.00;;;;;;4945567;28;19983;-66
2022/10/16 01:02:32;;;;;;;;;;;19.00;95.10;;;;;;4969892;28;19980;-67
2022/10/16 01:04:58;;;;;;;;;;;18.70;95.00;;;;;;4977832;28;20331;-66
2022/10/16 01:07:33;;;;;;;;;;;18.80;95.00;;;;;;4977764;28;19933;-66
2022/10/16 01:10:17;;;;;;;;;;;19.10;95.10;;;;;;4973442;28;20514;-66
2022/10/16 01:12:59;;;;;;;;;;;19.00;95.10;;;;;;4950136;29;19930;-66
2022/10/16 01:15:31;;;;;;;;;;;19.00;95.10;;;;;;4957988;29;19927;-66
2022/10/16 01:17:58;;;;;;;;;;;18.80;95.00;;;;;;4940454;28;19930;-70
2022/10/16 01:20:30;;;;;;;;;;;19.00;95.00;;;;;;4955190;28;19930;-66
2022/10/16 01:22:56;;;;;;;;;;;18.90;95.00;;;;;;4955961;28;19974;-65
2022/10/16 01:25:31;;;;;;;;;;;18.80;95.00;;;;;;4958087;29;19927;-66
2022/10/16 01:27:57;;;;;;;;;;;19.00;95.00;;;;;;4929507;29;19926;-66
2022/10/16 01:30:23;;;;;;;;;;;18.90;95.00;;;;;;4938588;29;20376;-66
2022/10/16 01:32:50;;;;;;;;;;;19.00;95.00;;;;;;4935706;29;19927;-65
2022/10/16 01:35:21;;;;;;;;;;;18.80;94.90;;;;;;4958127;28;19984;-67
2022/10/16 01:37:49;;;;;;;;;;;18.80;94.90;;;;;;4955915;28;19950;-65
2022/10/16 01:40:15;;;;;;;;;;;19.00;94.90;;;;;;4956997;28;20323;-65
2022/10/16 01:42:42;;;;;;;;;;;18.90;94.90;;;;;;4956880;28;19934;-66
2022/10/16 01:45:08;;;;;;;;;;;18.90;94.90;;;;;;4957779;29;20017;-66
2022/10/16 01:47:33;;;;;;;;;;;19.10;94.90;;;;;;4940627;29;20363;-67
2022/10/16 01:49:59;;;;;;;;;;;19.00;94.90;;;;;;4940247;29;19926;-65
2022/10/16 01:52:25;;;;;;;;;;;19.00;94.90;;;;;;4957756;28;19927;-66
2022/10/16 01:54:51;;;;;;;;;;;18.90;94.80;;;;;;4955684;29;20003;-67
2022/10/16 01:57:16;;;;;;;;;;;18.70;94.80;;;;;;4956453;29;19963;-66
2022/10/16 01:59:44;;;;;;;;;;;18.80;94.80;;;;;;4956379;29;19953;-66
2022/10/16 02:02:09;;;;;;;;;;;18.70;94.80;;;;;;4957076;29;19927;-66
2022/10/16 02:04:48;;;;;;;;;;;18.80;94.70;;;;;;4955258;28;19933;-64
2022/10/16 02:07:14;;;;;;;;;;;18.70;94.70;;;;;;4955274;28;19962;-65
2022/10/16 02:09:40;;;;;;;;;;;18.80;94.70;;;;;;4957822;28;19930;-64
2022/10/16 02:12:08;;;;;;;;;;;18.70;94.70;;;;;;4956934;29;20060;-67
2022/10/16 02:14:34;;;;;;;;;;;18.90;94.70;;;;;;4955083;28;19929;-67
2022/10/16 02:16:59;;;;;;;;;;;19.10;94.80;;;;;;4957167;29;19931;-65
2022/10/16 02:19:25;;;;;;;;;;;18.80;94.70;;;;;;4956817;29;20388;-67
2022/10/16 02:21:51;;;;;;;;;;;18.80;94.70;;;;;;4955603;29;19926;-67
2022/10/16 02:24:33;;;;;;;;;;;18.80;94.60;;;;;;4955416;28;19926;-67
2022/10/16 02:27:13;;;;;;;;;;;18.80;94.70;;;;;;4947841;29;19927;-65
2022/10/16 02:29:39;;;;;;;;;;;18.90;94.70;;;;;;4936326;29;19927;-65
2022/10/16 02:32:04;;;;;;;;;;;18.80;94.60;;;;;;4938901;28;19934;-66
2022/10/16 02:34:30;;;;;;;;;;;18.80;94.60;;;;;;4956570;29;20024;-66
2022/10/16 02:36:56;;;;;;;;;;;;;;;;;;4938071;28;19929;-66
2022/10/16 02:39:22;;;;;;;;;;;18.70;94.60;;;;;;4956114;28;19934;-66
2022/10/16 02:41:47;;;;;;;;;;;18.90;94.60;;;;;;4956369;29;20292;-64
2022/10/16 02:44:13;;;;;;;;;;;18.70;94.50;;;;;;4924221;29;19937;-65
2022/10/16 02:46:39;;;;;;;;;;;18.90;94.60;;;;;;4955571;28;20368;-67
2022/10/16 02:49:04;;;;;;;;;;;18.90;94.60;;;;;;4956573;29;19926;-65
2022/10/16 02:51:30;;;;;;;;;;;18.90;94.50;;;;;;4956135;28;19926;-67
2022/10/16 02:53:56;;;;;;;;;;;18.70;94.50;;;;;;4955025;28;19934;-66
2022/10/16 02:56:21;;;;;;;;;;;18.80;94.50;;;;;;4955297;28;19930;-66
2022/10/16 02:58:47;;;;;;;;;;;18.70;94.50;;;;;;4939091;29;19926;-66
2022/10/16 03:01:14;;;;;;;;;;;19.00;94.50;;;;;;4957014;28;20372;-66
2022/10/16 03:03:39;;;;;;;;;;;18.60;94.40;;;;;;4956297;29;20376;-65
2022/10/16 03:06:05;;;;;;;;;;;18.70;94.50;;;;;;4955256;28;19970;-65
2022/10/16 03:08:31;;;;;;;;;;;18.80;94.40;;;;;;4955389;28;19927;-66
2022/10/16 03:10:57;;;;;;;;;;;18.80;94.50;;;;;;4955357;28;20387;-66
2022/10/16 03:13:22;;;;;;;;;;;18.90;94.50;;;;;;4956221;29;19926;-66
2022/10/16 03:15:48;;;;;;;;;;;18.80;94.40;;;;;;4955901;29;19934;-66
2022/10/16 03:18:14;;;;;;;;;;;18.60;94.40;;;;;;4955718;28;19999;-65
2022/10/16 03:20:39;;;;;;;;;;;18.90;94.40;;;;;;4955003;28;19977;-67
2022/10/16 03:23:07;;;;;;;;;;;18.80;94.40;;;;;;4955592;29;19926;-65
2022/10/16 03:25:33;;;;;;;;;;;18.80;94.40;;;;;;4956050;29;19931;-66
2022/10/16 03:27:59;;;;;;;;;;;18.90;94.50;;;;;;4955769;29;20403;-66
2022/10/16 03:30:24;;;;;;;;;;;18.80;94.40;;;;;;4955152;28;20036;-67
2022/10/16 03:32:53;;;;;;;;;;;18.80;94.40;;;;;;4955992;29;19926;-66
2022/10/16 03:35:19;;;;;;;;;;;18.90;94.40;;;;;;4965462;28;19982;-65
2022/10/16 03:37:45;;;;;;;;;;;18.70;94.30;;;;;;4965756;28;19926;-65
2022/10/16 03:40:11;;;;;;;;;;;18.90;94.40;;;;;;4954967;28;19949;-67
2022/10/16 03:42:36;;;;;;;;;;;18.80;94.40;;;;;;4955702;29;20020;-66
2022/10/16 03:45:02;;;;;;;;;;;18.70;94.30;;;;;;4955557;29;20086;-66
2022/10/16 03:47:28;;;;;;;;;;;18.80;94.30;;;;;;4955560;29;19926;-66
2022/10/16 03:49:53;;;;;;;;;;;18.90;94.30;;;;;;4937628;28;19930;-67
2022/10/16 03:52:19;;;;;;;;;;;18.90;94.30;;;;;;4965059;28;19984;-65
2022/10/16 03:54:44;;;;;;;;;;;18.60;94.30;;;;;;4973657;28;20272;-65
2022/10/16 03:57:10;;;;;;;;;;;18.90;94.30;;;;;;4975104;28;20295;-65
2022/10/16 03:59:36;;;;;;;;;;;19.00;94.30;;;;;;4975357;28;19933;-66
2022/10/16 04:02:01;;;;;;;;;;;18.80;94.30;;;;;;4941821;29;19927;-67
2022/10/16 04:04:27;;;;;;;;;;;18.70;94.30;;;;;;4959312;29;19926;-66
2022/10/16 04:06:52;;;;;;;;;;;18.90;94.30;;;;;;4959012;28;19944;-66
2022/10/16 04:09:18;;;;;;;;;;;19.00;94.30;;;;;;4959852;28;19927;-66
2022/10/16 04:11:44;;;;;;;;;;;18.70;94.20;;;;;;4958378;28;19926;-66
2022/10/16 04:14:09;;;;;;;;;;;18.60;94.20;;;;;;4959309;29;19933;-67
2022/10/16 04:16:35;;;;;;;;;;;19.10;94.30;;;;;;4959350;29;19935;-66
2022/10/16 04:19:00;;;;;;;;;;;18.90;94.30;;;;;;4958970;29;19963;-66
2022/10/16 04:21:26;;;;;;;;;;;18.70;94.30;;;;;;4958421;28;19982;-66
2022/10/16 04:23:52;;;;;;;;;;;18.60;94.10;;;;;;4957134;28;20269;-65
2022/10/16 04:26:17;;;;;;;;;;;18.70;94.20;;;;;;4941947;29;19951;-66
2022/10/16 04:28:43;;;;;;;;;;;18.80;94.20;;;;;;4959163;29;19978;-66
2022/10/16 04:31:09;;;;;;;;;;;18.70;94.20;;;;;;4958762;29;19927;-66
2022/10/16 04:33:34;;;;;;;;;;;18.80;94.20;;;;;;4958048;28;19982;-67
2022/10/16 04:36:00;;;;;;;;;;;18.80;94.20;;;;;;4958747;29;19933;-66
2022/10/16 04:38:26;;;;;;;;;;;18.70;94.20;;;;;;4958720;29;19930;-66
2022/10/16 04:40:51;;;;;;;;;;;18.90;94.20;;;;;;4958946;29;19926;-66
2022/10/16 04:43:17;;;;;;;;;;;18.70;94.20;;;;;;4946629;28;19966;-67
2022/10/16 04:45:43;;;;;;;;;;;18.90;94.20;;;;;;4958509;29;19930;-67
2022/10/16 04:48:09;;;;;;;;;;;18.50;94.10;;;;;;4958469;29;19922;-65
2022/10/16 04:50:34;;;;;;;;;;;18.80;94.20;;;;;;4941580;29;19926;-66
2022/10/16 04:53:00;;;;;;;;;;;18.80;94.20;;;;;;4941410;29;19987;-66
2022/10/16 04:55:25;;;;;;;;;;;18.70;94.20;;;;;;4957469;28;20384;-66
2022/10/16 04:57:51;;;;;;;;;;;18.80;94.20;;;;;;4958360;29;20436;-66
2022/10/16 05:00:17;;;;;;;;;;;18.50;94.10;;;;;;4959099;28;19937;-66
2022/10/16 05:02:42;;;;;;;;;;;19.00;94.30;;;;;;4957672;28;20026;-66
2022/10/16 05:05:08;;;;;;;;;;;18.90;94.20;;;;;;4957568;28;19969;-66
2022/10/16 05:07:34;;;;;;;;;;;18.90;94.20;;;;;;4957857;28;19950;-66
2022/10/16 05:09:59;;;;;;;;;;;18.60;94.20;;;;;;4957016;28;19991;-67
2022/10/16 05:12:25;;;;;;;;;;;18.90;94.30;;;;;;4957662;28;19927;-67
2022/10/16 05:14:51;;;;;;;;;;;18.50;94.10;;;;;;4956990;28;19965;-67
2022/10/16 05:17:16;;;;;;;;;;;18.70;94.20;;;;;;4966509;28;19926;-65
2022/10/16 05:19:42;;;;;;;;;;;18.40;94.10;;;;;;4977572;28;19937;-67
2022/10/16 05:22:07;;;;;;;;;;;18.90;94.30;;;;;;4977390;28;19926;-65
2022/10/16 05:24:33;;;;;;;;;;;18.80;94.30;;;;;;4977173;28;20330;-67
2022/10/16 05:26:59;;;;;;;;;;;18.90;94.30;;;;;;4965165;28;19933;-65
2022/10/16 05:29:24;;;;;;;;;;;18.80;94.30;;;;;;4958359;29;19964;-66
2022/10/16 05:31:51;;;;;;;;;;;18.90;94.30;;;;;;4958524;29;20292;-66
2022/10/16 05:34:17;;;;;;;;;;;18.60;94.20;;;;;;4967496;28;19933;-67
2022/10/16 05:36:45;;;;;;;;;;;18.80;94.30;;;;;;4959184;28;19930;-66
2022/10/16 05:39:10;;;;;;;;;;;18.70;94.20;;;;;;4957331;28;19926;-67
2022/10/16 05:41:36;;;;;;;;;;;18.60;94.20;;;;;;4957838;29;19949;-66
2022/10/16 05:44:05;;;;;;;;;;;18.70;94.20;;;;;;4957486;29;20132;-65
2022/10/16 05:46:31;;;;;;;;;;;18.80;94.30;;;;;;4957806;29;20032;-66
2022/10/16 05:48:57;;;;;;;;;;;18.70;94.20;;;;;;4956403;28;19933;-65
2022/10/16 05:51:23;;;;;;;;;;;18.90;94.30;;;;;;4967736;28;19930;-66
2022/10/16 05:53:49;;;;;;;;;;;18.70;94.20;;;;;;4976596;28;20261;-65
2022/10/16 05:56:14;;;;;;;;;;;18.70;94.30;;;;;;4976933;28;19926;-66
2022/10/16 05:58:40;;;;;;;;;;;18.80;94.20;;;;;;4967223;28;19930;-67
2022/10/16 06:01:07;;;;;;;;;;;18.80;94.30;;;;;;4957179;29;19927;-67
2022/10/16 06:03:33;;;;;;;;;;;18.90;94.30;;;;;;4957378;29;19934;-67
2022/10/16 06:05:58;;;;;;;;;;;19.00;94.30;;;;;;4957402;29;19982;-65
2022/10/16 06:08:24;;;;;;;;;;;18.90;94.30;;;;;;4966061;28;20430;-66
2022/10/16 06:11:00;;;;;;;;;;;18.80;94.20;;;;;;4956695;28;20329;-66
2022/10/16 06:13:25;;;;;;;;;;;18.70;94.20;;;;;;4956128;28;19926;-66
2022/10/16 06:15:51;;;;;;;;;;;18.80;94.20;;;;;;4956833;29;19950;-67
2022/10/16 06:18:17;;;;;;;;;;;19.00;94.30;;;;;;4957130;29;19923;-65
2022/10/16 06:20:42;;;;;;;;;;;18.90;94.30;;;;;;4955617;28;19930;-66
2022/10/16 06:23:08;;;;;;;;;;;18.90;94.30;;;;;;4956906;29;19974;-66
2022/10/16 06:25:33;;;;;;;;;;;18.80;94.30;;;;;;4950594;28;20291;-67
2022/10/16 06:27:59;;;;;;;;;;;18.70;94.20;;;;;;4976288;28;20400;-68
2022/10/16 06:30:25;;;;;;;;;;;18.70;94.20;;;;;;4950878;29;20005;-66
2022/10/16 06:32:50;;;;;;;;;;;18.80;94.30;;;;;;4956536;29;19926;-65
2022/10/16 06:35:16;;;;;;;;;;;19.10;94.30;;;;;;4939382;29;19926;-66
2022/10/16 06:37:41;;;;;;;;;;;18.90;94.30;;;;;;4956518;29;20367;-66
2022/10/16 06:40:07;;;;;;;;;;;18.70;94.20;;;;;;4956409;29;19935;-66
2022/10/16 06:42:33;;;;;;;;;;;18.70;94.20;;;;;;4966770;28;20016;-67
2022/10/16 06:44:59;;;;;;;;;;;;;;;;;;4958391;28;20301;-66
2022/10/16 06:47:24;;;;;;;;;;;18.70;94.20;;;;;;4976002;28;19926;-67
2022/10/16 06:49:50;;;;;;;;;;;18.80;94.20;;;;;;4975934;28;20003;-66
2022/10/16 06:52:16;;;;;;;;;;;18.90;94.20;;;;;;4963890;28;20416;-66
2022/10/16 06:54:41;;;;;;;;;;;18.70;94.20;;;;;;4938915;29;19933;-66
2022/10/16 06:57:07;;;;;;;;;;;19.10;94.30;;;;;;4954983;29;19933;-66
2022/10/16 06:59:33;;;;;;;;;;;18.80;94.10;;;;;;4955172;28;20011;-65
2022/10/16 07:01:58;;;;;;;;;;;18.90;94.20;;;;;;4955441;28;19927;-65
2022/10/16 07:04:24;;;;;;;;;;;19.20;94.20;;;;;;4955272;28;19973;-65
2022/10/16 07:06:51;;;;;;;;;;;18.80;94.10;;;;;;4956338;29;19927;-68
2022/10/16 07:09:17;;;;;;;;;;;19.10;94.10;;;;;;4955963;29;19927;-67
2022/10/16 07:11:42;;;;;;;;;;;19.10;94.10;;;;;;4956271;29;19930;-67
2022/10/16 07:14:17;;;;;;;;;;;19.00;94.00;;;;;;4953196;28;19965;-69
2022/10/16 07:16:44;;;;;;;;;;;19.10;94.00;;;;;;4939003;29;20228;-69
2022/10/16 07:19:11;;;;;;;;;;;19.10;94.00;;;;;;4956206;29;19970;-68
2022/10/16 07:21:37;;;;;;;;;;;19.00;94.00;;;;;;4956171;29;20014;-69
2022/10/16 07:24:04;;;;;;;;;;;19.10;93.90;;;;;;4950540;28;20009;-69
2022/10/16 07:26:30;;;;;;;;;;;19.10;94.00;;;;;;4955540;29;20018;-66
2022/10/16 07:28:57;;;;;;;;;;;18.90;93.90;;;;;;4955703;29;19926;-69
2022/10/16 07:31:23;;;;;;;;;;;19.20;94.00;;;;;;4955811;29;20291;-67
2022/10/16 07:33:48;;;;;;;;;;;19.10;94.00;;;;;;4963473;28;19930;-65
2022/10/16 07:36:14;;;;;;;;;;;18.80;93.90;;;;;;4955454;28;20295;-63
2022/10/16 07:38:42;;;;;;;;;;;19.30;94.00;;;;;;4954935;29;19934;-67
2022/10/16 07:41:08;;;;;;;;;;;19.20;93.90;;;;;;4955727;29;20021;-71
2022/10/16 07:43:34;;;;;;;;;;;19.20;93.90;;;;;;4938331;29;20335;-66
2022/10/16 07:46:03;;;;;;;;;;;19.20;93.80;;;;;;4953809;28;20347;-72
2022/10/16 07:48:30;;;;;;;;;;;19.20;93.90;;;;;;4955702;29;19930;-70
2022/10/16 07:51:02;;;;;;;;;;;19.10;93.80;;;;;;4956151;28;20352;-65
2022/10/16 07:53:28;;;;;;;;;;;19.40;93.80;;;;;;4955451;29;19992;-63
2022/10/16 07:56:04;;;;;;;;;;;19.50;93.70;;;;;;4954842;29;20396;-71
2022/10/16 07:58:29;;;;;;;;;;;19.50;93.80;;;;;;4953841;28;19974;-67
2022/10/16 08:00:55;;;;;;;;;;;19.20;93.80;;;;;;4954708;28;19931;-68
2022/10/16 08:03:21;;;;;;;;;;;19.10;93.80;;;;;;4937963;29;20391;-69
2022/10/16 08:05:47;;;;;;;;;;;19.20;93.90;;;;;;4953337;28;19934;-67
2022/10/16 08:08:13;;;;;;;;;;;19.00;93.90;;;;;;4930015;29;20025;-67
2022/10/16 08:10:38;;;;;;;;;;;19.20;94.10;;;;;;4950692;28;20436;-66
2022/10/16 08:13:04;;;;;;;;;;;19.00;94.10;;;;;;4955362;29;19927;-65
2022/10/16 08:15:30;;;;;;;;;;;18.80;94.10;;;;;;4954243;28;20668;-66
2022/10/16 08:17:56;;;;;;;;;;;19.10;94.20;;;;;;4955432;29;20372;-67
2022/10/16 08:20:22;;;;;;;;;;;18.80;94.20;;;;;;4937996;29;19929;-67
2022/10/16 08:22:47;;;;;;;;;;;18.90;94.20;;;;;;4955198;29;19926;-65
2022/10/16 08:25:13;;;;;;;;;;;19.00;94.10;;;;;;4971464;28;19926;-64
2022/10/16 08:27:38;;;;;;;;;;;19.20;94.10;;;;;;4957180;28;19978;-65
2022/10/16 08:30:04;;;;;;;;;;;19.30;94.00;;;;;;4955034;29;20013;-66
2022/10/16 08:32:30;;;;;;;;;;;19.50;93.90;;;;;;4955038;29;19933;-66
2022/10/16 08:34:56;;;;;;;;;;;19.40;93.70;;;;;;4954650;29;19927;-67
2022/10/16 08:37:21;;;;;;;;;;;19.20;93.50;;;;;;4954101;28;19927;-67
2022/10/16 08:39:47;;;;;;;;;;;19.40;93.50;;;;;;4955234;29;20368;-65
2022/10/16 08:42:18;;;;;;;;;;;20.00;93.40;;;;;;4964699;28;20368;-66
2022/10/16 08:45:01;;;;;;;;;;;19.70;93.30;;;;;;4954748;29;20021;-66
2022/10/16 08:47:31;;;;;;;;;;;19.80;93.20;;;;;;4936703;29;20091;-66
2022/10/16 08:49:58;;;;;;;;;;;19.80;93.10;;;;;;4940428;29;19966;-67
2022/10/16 08:52:25;;;;;;;;;;;19.80;93.10;;;;;;4941181;29;19930;-66
2022/10/16 08:54:51;;;;;;;;;;;19.80;93.00;;;;;;4940802;29;19993;-66
2022/10/16 08:57:18;;;;;;;;;;;20.00;93.00;;;;;;4959740;28;19982;-66
2022/10/16 08:59:44;;;;;;;;;;;20.00;92.90;;;;;;4941285;28;19931;-65
2022/10/16 09:02:29;;;;;;;;;;;20.10;92.90;;;;;;4957915;29;19933;-66
2022/10/16 09:04:57;;;;;;;;;;;20.00;92.80;;;;;;4957910;29;19930;-66
2022/10/16 09:07:26;;;;;;;;;;;20.10;92.40;;;;;;4956915;28;19936;-68
2022/10/16 09:10:12;;;;;;;;;;;20.00;93.00;;;;;;4940386;28;19949;-66
2022/10/16 09:13:04;;;;;;;;;;;19.90;92.70;;;;;;4843107;29;19929;-68
2022/10/16 09:15:39;;;;;;;;;;;20.10;92.70;;;;;;4841327;29;19940;-66
2022/10/16 09:18:06;;;;;;;;;;;20.00;92.70;;;;;;4843143;29;19932;-65
2022/10/16 09:20:32;;;;;;;;;;;19.80;92.60;;;;;;4812240;29;19929;-66
2022/10/16 09:23:08;;;;;;;;;;;20.00;92.70;;;;;;4842892;29;19968;-67
2022/10/16 09:25:33;;;;;;;;;;;19.90;92.70;;;;;;4842075;29;20433;-70
2022/10/16 09:27:59;;;;;;;;;;;19.90;92.60;;;;;;4827786;29;19935;-71
2022/10/16 09:30:26;;;;;;;;;;;20.20;92.70;;;;;;4842026;29;20655;-64
2022/10/16 09:32:52;;;;;;;;;;;20.10;92.70;;;;;;4856138;29;19936;-66
2022/10/16 09:35:21;;;;;;;;;;;19.80;92.70;;;;;;4861034;29;19928;-64
2022/10/16 09:37:48;;;;;;;;;;;20.30;92.40;;;;;;4845576;29;19951;-66
2022/10/16 09:40:23;;;;;;;;;;;20.10;93.00;;;;;;4845844;29;19928;-66
2022/10/16 09:42:49;;;;;;;;;;;20.00;93.00;;;;;;4844049;29;19934;-66
2022/10/16 09:45:21;;;;;;;;;;;20.10;92.80;;;;;;4841825;29;20023;-66
2022/10/16 09:47:46;;;;;;;;;;;20.20;92.60;;;;;;4827242;29;19984;-67
2022/10/16 09:50:22;;;;;;;;;;;19.90;93.10;;;;;;4923853;29;19930;-66
2022/10/16 09:52:48;;;;;;;;;;;20.30;92.70;;;;;;4938856;29;19926;-66
2022/10/16 09:55:14;;;;;;;;;;;20.20;93.10;;;;;;4939771;29;19933;-65
2022/10/16 09:57:50;;;;;;;;;;;20.20;93.10;;;;;;4939175;29;20017;-67
2022/10/16 10:00:16;;;;;;;;;;;20.00;92.60;;;;;;4939584;29;19926;-67
2022/10/16 10:02:41;;;;;;;;;;;19.90;93.10;;;;;;4938861;29;19977;-67
2022/10/16 10:05:17;;;;;;;;;;;19.90;93.00;;;;;;4956258;28;19926;-67
2022/10/16 10:07:43;;;;;;;;;;;20.30;93.20;;;;;;4940023;29;19930;-67
2022/10/16 10:10:19;;;;;;;;;;;19.90;93.20;;;;;;4956845;29;19933;-67
2022/10/16 10:12:45;;;;;;;;;;;20.10;93.10;;;;;;4955762;28;19926;-66
2022/10/16 10:15:11;;;;;;;;;;;20.10;93.10;;;;;;4955996;28;19926;-62
2022/10/16 10:17:45;;;;;;;;;;;19.80;93.20;;;;;;4956626;29;20069;-67
2022/10/16 10:20:27;;;;;;;;;;;20.10;93.30;;;;;;4939564;29;19933;-69
2022/10/16 10:22:53;;;;;;;;;;;20.10;92.70;;;;;;4963198;28;20385;-66
2022/10/16 10:25:20;;;;;;;;;;;20.20;93.00;;;;;;4947463;29;20025;-67
2022/10/16 10:27:51;;;;;;;;;;;20.20;93.30;;;;;;4956043;28;20005;-67
2022/10/16 10:30:28;;;;;;;;;;;20.50;92.70;;;;;;4956015;28;19934;-69
2022/10/16 10:33:03;;;;;;;;;;;20.30;93.10;;;;;;4923554;29;19933;-68
2022/10/16 10:35:31;;;;;;;;;;;20.30;92.60;;;;;;4955546;29;20292;-67
2022/10/16 10:38:03;;;;;;;;;;;20.10;93.20;;;;;;4939392;29;19934;-67
2022/10/16 10:40:31;;;;;;;;;;;20.60;93.00;;;;;;4967570;28;19926;-67
2022/10/16 10:43:13;;;;;;;;;;;20.50;92.70;;;;;;4975551;28;19930;-67
2022/10/16 10:45:38;;;;;;;;;;;20.60;93.00;;;;;;4972263;28;19933;-70
2022/10/16 10:48:10;;;;;;;;;;;20.40;92.90;;;;;;4956199;29;19927;-63
2022/10/16 10:50:41;;;;;;;;;;;20.40;92.90;;;;;;4956439;29;19927;-68
2022/10/16 10:53:10;;;;;;;;;;;20.70;92.70;;;;;;4923338;29;19927;-61
2022/10/16 10:55:35;;;;;;;;;;;20.30;93.00;;;;;;4938297;29;19933;-61
2022/10/16 10:58:20;;;;;;;;;;;20.60;92.80;;;;;;4955563;28;19926;-63
2022/10/16 11:00:49;;;;;;;;;;;20.40;92.30;;;;;;4938852;29;19934;-63
2022/10/16 11:03:33;;;;;;;;;;;20.60;92.90;;;;;;4938952;29;19926;-61
2022/10/16 11:06:04;;;;;;;;;;;20.80;92.60;;;;;;4956283;29;19934;-63
2022/10/16 11:08:36;;;;;;;;;;;20.80;92.20;;;;;;4955614;29;19926;-62
2022/10/16 11:11:04;;;;;;;;;;;20.70;92.00;;;;;;4955294;28;19973;-63
2022/10/16 11:13:35;;;;;;;;;;;20.60;92.50;;;;;;4956198;28;19949;-64
2022/10/16 11:16:03;;;;;;;;;;;20.60;91.80;;;;;;4953758;28;19937;-63
2022/10/16 11:18:46;;;;;;;;;;;20.70;92.40;;;;;;4937630;29;19977;-61
2022/10/16 11:21:12;;;;;;;;;;;20.70;92.20;;;;;;4955931;29;19930;-61
2022/10/16 11:23:40;;;;;;;;;;;20.60;92.30;;;;;;4955722;29;19926;-61
2022/10/16 11:26:10;;;;;;;;;;;20.50;92.20;;;;;;4938862;29;19926;-64
2022/10/16 11:28:37;;;;;;;;;;;20.80;92.10;;;;;;4937543;29;19927;-62
2022/10/16 11:31:12;;;;;;;;;;;20.80;91.90;;;;;;4938642;29;19973;-63
2022/10/16 11:33:38;;;;;;;;;;;21.00;91.30;;;;;;4954550;28;19930;-63
2022/10/16 11:36:06;;;;;;;;;;;20.80;91.60;;;;;;4955762;29;20021;-62
2022/10/16 11:38:32;;;;;;;;;;;21.10;91.70;;;;;;4938296;29;19927;-66
2022/10/16 11:41:30;;;;;;;;;;;20.90;91.50;;;;;;4954460;28;19930;-68
2022/10/16 11:43:56;;;;;;;;;;;21.00;90.80;;;;;;4896128;29;19971;-67
2022/10/16 11:46:21;;;;;;;;;;;21.00;91.10;;;;;;4895183;29;20063;-65
2022/10/16 11:48:49;;;;;;;;;;;21.40;91.20;;;;;;4895672;29;20080;-65
2022/10/16 11:51:27;;;;;;;;;;;21.20;91.20;;;;;;4881139;29;19933;-62
2022/10/16 11:53:52;;;;;;;;;;;21.40;91.20;;;;;;4895767;29;19931;-71
2022/10/16 11:56:18;;;;;;;;;;;21.20;90.60;;;;;;4895623;29;19968;-63
2022/10/16 11:58:56;;;;;;;;;;;21.50;90.70;;;;;;4896133;29;19923;-71
2022/10/16 12:01:22;;;;;;;;;;;21.30;90.00;;;;;;4880906;29;20346;-67
2022/10/16 12:03:56;;;;;;;;;;;21.90;90.50;;;;;;4894536;29;19932;-70
2022/10/16 12:06:31;;;;;;;;;;;21.80;90.00;;;;;;4877257;29;19938;-67
2022/10/16 12:08:58;;;;;;;;;;;21.70;90.10;;;;;;4877649;29;20023;-67
2022/10/16 12:11:37;;;;;;;;;;;21.50;90.60;;;;;;4878438;29;19928;-68
2022/10/16 12:14:07;;;;;;;;;;;22.20;89.80;;;;;;4860654;29;20024;-67
2022/10/16 12:16:32;;;;;;;;;;;23.30;88.90;;;;;;4892625;29;19936;-68
2022/10/16 12:19:28;;;;;;;;;;;23.90;88.50;;;;;;4909898;29;20340;-67
2022/10/16 12:21:55;;;;;;;;;;;24.70;86.20;;;;;;4843882;29;19972;-65
2022/10/16 12:24:21;;;;;;;;;;;25.30;85.80;;;;;;4845252;29;19928;-71
2022/10/16 12:26:47;;;;;;;;;;;25.90;84.40;;;;;;4847047;29;20324;-68
2022/10/16 12:29:12;;;;;;;;;;;26.50;82.80;;;;;;4846041;29;19984;-68
2022/10/16 12:31:40;;;;;;;;;;;27.00;81.90;;;;;;4862196;29;20436;-65
2022/10/16 12:34:05;;;;;;;;;;;27.00;80.90;;;;;;4846778;29;19928;-67
2022/10/16 12:36:32;;;;;;;;;;;27.00;80.10;;;;;;4862310;29;19974;-76
2022/10/16 12:38:57;;;;;;;;;;;26.90;79.60;;;;;;4861687;29;19928;-70
2022/10/16 12:41:33;;;;;;;;;;;26.50;79.30;;;;;;4862193;29;19934;-75
2022/10/16 12:44:00;;;;;;;;;;;27.00;79.40;;;;;;4846533;29;20305;-74
2022/10/16 12:46:29;;;;;;;;;;;27.20;78.40;;;;;;4862024;29;19928;-72
2022/10/16 12:49:13;;;;;;;;;;;27.00;76.50;;;;;;4860424;29;19938;-76
2022/10/16 12:51:39;;;;;;;;;;;26.70;76.40;;;;;;4852306;29;19951;-74
2022/10/16 12:54:11;;;;;;;;;;;26.10;77.60;;;;;;4855019;29;20010;-65
2022/10/16 12:56:43;;;;;;;;;;;25.40;78.90;;;;;;4862495;29;19974;-70
2022/10/16 12:59:20;;;;;;;;;;;24.90;78.20;;;;;;4928090;29;19934;-69
2022/10/16 13:01:46;;;;;;;;;;;24.70;79.00;;;;;;4957946;29;19927;-75
2022/10/16 13:04:15;;;;;;;;;;;24.10;80.50;;;;;;4957886;29;19938;-69
2022/10/16 13:06:56;;;;;;;;;;;23.80;80.20;;;;;;4958061;29;20387;-72
2022/10/16 13:09:21;;;;;;;;;;;23.50;80.90;;;;;;4956979;29;19946;-65
2022/10/16 13:11:50;;;;;;;;;;;23.30;82.90;;;;;;4957959;29;20299;-69
2022/10/16 13:14:16;;;;;;;;;;;22.80;82.10;;;;;;4958503;28;20344;-67
2022/10/16 13:16:50;;;;;;;;;;;22.70;83.90;;;;;;4957883;29;19934;-68
2022/10/16 13:19:16;;;;;;;;;;;22.60;83.30;;;;;;4957993;29;19927;-67
2022/10/16 13:21:45;;;;;;;;;;;22.50;84.80;;;;;;4957930;29;20017;-65
2022/10/16 13:24:30;;;;;;;;;;;22.50;84.20;;;;;;4957583;29;19927;-69
2022/10/16 13:27:18;;;;;;;;;;;22.30;84.50;;;;;;4956574;29;20392;-72
2022/10/16 13:29:44;;;;;;;;;;;22.10;84.80;;;;;;4958308;28;20340;-66
2022/10/16 13:32:10;;;;;;;;;;;21.70;86.20;;;;;;4957506;29;19922;-68
2022/10/16 13:34:43;;;;;;;;;;;22.00;86.90;;;;;;4955758;28;19930;-66
2022/10/16 13:37:15;;;;;;;;;;;21.70;87.30;;;;;;4957426;29;19969;-67
2022/10/16 13:39:40;;;;;;;;;;;21.90;87.60;;;;;;4956008;28;19927;-68
2022/10/16 13:42:07;;;;;;;;;;;21.60;87.70;;;;;;4957720;29;19966;-71
2022/10/16 13:44:42;;;;;;;;;;;21.70;88.20;;;;;;4940074;29;19938;-70
2022/10/16 13:47:24;;;;;;;;;;;21.30;88.30;;;;;;4941015;29;20363;-68
2022/10/16 13:50:06;;;;;;;;;;;21.10;88.20;;;;;;4957378;29;20354;-70
2022/10/16 13:52:32;;;;;;;;;;;21.00;87.30;;;;;;4960440;28;19934;-67
2022/10/16 13:54:58;;;;;;;;;;;21.00;88.60;;;;;;4958367;28;19973;-69
2022/10/16 13:57:24;;;;;;;;;;;21.20;88.90;;;;;;4923283;29;19998;-74
2022/10/16 13:59:49;;;;;;;;;;;21.20;89.30;;;;;;4937971;29;19927;-70
2022/10/16 14:02:18;;;;;;;;;;;20.90;89.00;;;;;;4937635;29;19927;-65
2022/10/16 14:04:43;;;;;;;;;;;21.20;89.60;;;;;;4952566;28;19939;-75
2022/10/16 14:07:18;;;;;;;;;;;21.20;89.60;;;;;;4956768;28;19927;-69
2022/10/16 14:09:47;;;;;;;;;;;21.00;88.50;;;;;;4938607;29;19926;-65
2022/10/16 14:12:12;;;;;;;;;;;20.80;89.80;;;;;;4939623;29;19973;-73
2022/10/16 14:14:42;;;;;;;;;;;20.90;89.60;;;;;;4956540;29;20025;-67
2022/10/16 14:17:15;;;;;;;;;;;20.90;88.40;;;;;;4956557;29;19926;-72
2022/10/16 14:19:40;;;;;;;;;;;20.90;88.40;;;;;;4958820;28;20340;-67
2022/10/16 14:22:19;;;;;;;;;;;20.90;89.50;;;;;;4939954;29;19926;-65
2022/10/16 14:24:45;;;;;;;;;;;20.80;89.90;;;;;;4955647;29;19981;-70